<?xml version="1.0" encoding="UTF-8" standalone="no" ?>
<gpx xmlns="http://www.topografix.com/GPX/1/1" xmlns:xsi="http://www.w3.org/2001/XMLSchema-instance" xsi:schemaLocation="http://www.topografix.com/GPX/1/1 http://www.topografix.com/GPX/1/1/gpx.xsd" version="1.1" creator="VisuGPX - https://www.visugpx.com">
  <metadata>
    <name>Norvège</name>
  </metadata>
  <trk>
    <name><![CDATA[Tour d'Europe: étape 030]]></name>
    <trkseg>
      <trkpt lat="61.44946" lon="5.89219">
        <ele>50.576668</ele>
        <time>2020-07-28T06:59:17.186Z</time>
      </trkpt>
      <trkpt lat="61.45006" lon="5.8883">
        <ele>55.878991</ele>
        <time>2020-07-28T07:01:30.177Z</time>
      </trkpt>
      <trkpt lat="61.44834" lon="5.885">
        <ele>56.832977</ele>
        <time>2020-07-28T07:02:31.193Z</time>
      </trkpt>
      <trkpt lat="61.44801" lon="5.8809">
        <ele>58.242197</ele>
        <time>2020-07-28T07:03:31.176Z</time>
      </trkpt>
      <trkpt lat="61.44856" lon="5.87599">
        <ele>54.205855</ele>
        <time>2020-07-28T07:04:13.181Z</time>
      </trkpt>
      <trkpt lat="61.44896" lon="5.87108">
        <ele>52.683235</ele>
        <time>2020-07-28T07:04:53.185Z</time>
      </trkpt>
      <trkpt lat="61.44953" lon="5.86616">
        <ele>57.194337</ele>
        <time>2020-07-28T07:05:49.165Z</time>
      </trkpt>
      <trkpt lat="61.44969" lon="5.86187">
        <ele>59.398505</ele>
        <time>2020-07-28T07:06:34.204Z</time>
      </trkpt>
      <trkpt lat="61.44954" lon="5.85773">
        <ele>56.211522</ele>
        <time>2020-07-28T07:07:26.180Z</time>
      </trkpt>
      <trkpt lat="61.45021" lon="5.85482">
        <ele>68.254182</ele>
        <time>2020-07-28T07:08:32.201Z</time>
      </trkpt>
      <trkpt lat="61.45023" lon="5.85003">
        <ele>64.80889</ele>
        <time>2020-07-28T07:09:35.168Z</time>
      </trkpt>
      <trkpt lat="61.45229" lon="5.85033">
        <ele>69.896969</ele>
        <time>2020-07-28T07:10:35.163Z</time>
      </trkpt>
      <trkpt lat="61.45449" lon="5.85021">
        <ele>66.419216</ele>
        <time>2020-07-28T07:11:34.205Z</time>
      </trkpt>
      <trkpt lat="61.45662" lon="5.8503">
        <ele>50.461835</ele>
        <time>2020-07-28T07:12:32.173Z</time>
      </trkpt>
      <trkpt lat="61.45869" lon="5.84931">
        <ele>54.729246</ele>
        <time>2020-07-28T07:13:37.195Z</time>
      </trkpt>
      <trkpt lat="61.46223" lon="5.84346">
        <ele>69.164655</ele>
        <time>2020-07-28T07:16:57.186Z</time>
      </trkpt>
      <trkpt lat="61.46366" lon="5.83998">
        <ele>70.232704</ele>
        <time>2020-07-28T07:17:51.197Z</time>
      </trkpt>
      <trkpt lat="61.46453" lon="5.83615">
        <ele>72.041696</ele>
        <time>2020-07-28T07:19:04.187Z</time>
      </trkpt>
      <trkpt lat="61.46528" lon="5.83282">
        <ele>71.351204</ele>
        <time>2020-07-28T07:19:58.176Z</time>
      </trkpt>
      <trkpt lat="61.4658" lon="5.82615">
        <ele>61.949023</ele>
        <time>2020-07-28T07:20:40.173Z</time>
      </trkpt>
      <trkpt lat="61.46825" lon="5.82443">
        <ele>59.962878</ele>
        <time>2020-07-28T07:21:16.186Z</time>
      </trkpt>
      <trkpt lat="61.46987" lon="5.82161">
        <ele>74.40288</ele>
        <time>2020-07-28T07:22:34.192Z</time>
      </trkpt>
      <trkpt lat="61.47067" lon="5.81777">
        <ele>78.906009</ele>
        <time>2020-07-28T07:24:03.172Z</time>
      </trkpt>
      <trkpt lat="61.47313" lon="5.81218">
        <ele>91.489609</ele>
        <time>2020-07-28T07:25:53.181Z</time>
      </trkpt>
      <trkpt lat="61.47794" lon="5.80718">
        <ele>68.606659</ele>
        <time>2020-07-28T07:27:03.180Z</time>
      </trkpt>
      <trkpt lat="61.47946" lon="5.80963">
        <ele>67.197677</ele>
        <time>2020-07-28T07:27:43.215Z</time>
      </trkpt>
      <trkpt lat="61.48071" lon="5.81352">
        <ele>63.119355</ele>
        <time>2020-07-28T07:28:23.188Z</time>
      </trkpt>
      <trkpt lat="61.48292" lon="5.8139">
        <ele>60.181262</ele>
        <time>2020-07-28T07:29:08.189Z</time>
      </trkpt>
      <trkpt lat="61.48509" lon="5.81553">
        <ele>61.729091</ele>
        <time>2020-07-28T07:29:56.226Z</time>
      </trkpt>
      <trkpt lat="61.48711" lon="5.81705">
        <ele>65.023094</ele>
        <time>2020-07-28T07:31:03.190Z</time>
      </trkpt>
      <trkpt lat="61.48905" lon="5.81605">
        <ele>65.045779</ele>
        <time>2020-07-28T07:31:46.177Z</time>
      </trkpt>
      <trkpt lat="61.49034" lon="5.81282">
        <ele>71.160434</ele>
        <time>2020-07-28T07:32:28.178Z</time>
      </trkpt>
      <trkpt lat="61.49132" lon="5.80934">
        <ele>69.428096</ele>
        <time>2020-07-28T07:33:09.171Z</time>
      </trkpt>
      <trkpt lat="61.4919" lon="5.80503">
        <ele>65.909024</ele>
        <time>2020-07-28T07:33:51.192Z</time>
      </trkpt>
      <trkpt lat="61.49361" lon="5.80303">
        <ele>67.083365</ele>
        <time>2020-07-28T07:34:34.182Z</time>
      </trkpt>
      <trkpt lat="61.49495" lon="5.80017">
        <ele>67.921717</ele>
        <time>2020-07-28T07:35:14.178Z</time>
      </trkpt>
      <trkpt lat="61.496" lon="5.79574">
        <ele>66.769776</ele>
        <time>2020-07-28T07:35:56.242Z</time>
      </trkpt>
      <trkpt lat="61.49566" lon="5.79063">
        <ele>64.117868</ele>
        <time>2020-07-28T07:36:36.179Z</time>
      </trkpt>
      <trkpt lat="61.49682" lon="5.78773">
        <ele>62.355749</ele>
        <time>2020-07-28T07:37:17.176Z</time>
      </trkpt>
      <trkpt lat="61.49864" lon="5.7852">
        <ele>61.792796</ele>
        <time>2020-07-28T07:37:57.183Z</time>
      </trkpt>
      <trkpt lat="61.49884" lon="5.78052">
        <ele>66.572466</ele>
        <time>2020-07-28T07:38:53.172Z</time>
      </trkpt>
      <trkpt lat="61.49885" lon="5.77582">
        <ele>62.9253</ele>
        <time>2020-07-28T07:39:43.197Z</time>
      </trkpt>
      <trkpt lat="61.50023" lon="5.77202">
        <ele>55.586832</ele>
        <time>2020-07-28T07:40:23.178Z</time>
      </trkpt>
      <trkpt lat="61.50162" lon="5.76912">
        <ele>56.488468</ele>
        <time>2020-07-28T07:41:03.174Z</time>
      </trkpt>
      <trkpt lat="61.50207" lon="5.76456">
        <ele>61.792579</ele>
        <time>2020-07-28T07:41:51.199Z</time>
      </trkpt>
      <trkpt lat="61.50322" lon="5.76075">
        <ele>62.438048</ele>
        <time>2020-07-28T07:42:32.182Z</time>
      </trkpt>
      <trkpt lat="61.50383" lon="5.75676">
        <ele>61.974669</ele>
        <time>2020-07-28T07:43:12.175Z</time>
      </trkpt>
      <trkpt lat="61.50429" lon="5.75269">
        <ele>61.02356</ele>
        <time>2020-07-28T07:43:52.198Z</time>
      </trkpt>
      <trkpt lat="61.50428" lon="5.74823">
        <ele>62.136168</ele>
        <time>2020-07-28T07:44:36.185Z</time>
      </trkpt>
      <trkpt lat="61.50424" lon="5.74366">
        <ele>61.106209</ele>
        <time>2020-07-28T07:45:17.178Z</time>
      </trkpt>
      <trkpt lat="61.50381" lon="5.7388">
        <ele>59.959253</ele>
        <time>2020-07-28T07:45:57.214Z</time>
      </trkpt>
      <trkpt lat="61.50367" lon="5.73452">
        <ele>60.863952</ele>
        <time>2020-07-28T07:46:37.179Z</time>
      </trkpt>
      <trkpt lat="61.50348" lon="5.7295">
        <ele>57.956835</ele>
        <time>2020-07-28T07:47:19.177Z</time>
      </trkpt>
      <trkpt lat="61.50335" lon="5.72505">
        <ele>57.153355</ele>
        <time>2020-07-28T07:48:05.192Z</time>
      </trkpt>
      <trkpt lat="61.50463" lon="5.72179">
        <ele>58.982578</ele>
        <time>2020-07-28T07:48:48.216Z</time>
      </trkpt>
      <trkpt lat="61.50627" lon="5.71961">
        <ele>57.994078</ele>
        <time>2020-07-28T07:49:28.187Z</time>
      </trkpt>
      <trkpt lat="61.50813" lon="5.71916">
        <ele>51.791986</ele>
        <time>2020-07-28T07:50:10.189Z</time>
      </trkpt>
      <trkpt lat="61.51038" lon="5.71967">
        <ele>51.285821</ele>
        <time>2020-07-28T07:51:01.197Z</time>
      </trkpt>
      <trkpt lat="61.51266" lon="5.71949">
        <ele>52.131129</ele>
        <time>2020-07-28T07:51:54.214Z</time>
      </trkpt>
      <trkpt lat="61.51476" lon="5.71887">
        <ele>54.360623</ele>
        <time>2020-07-28T07:52:54.215Z</time>
      </trkpt>
      <trkpt lat="61.51682" lon="5.71878">
        <ele>59.976005</ele>
        <time>2020-07-28T07:54:03.186Z</time>
      </trkpt>
      <trkpt lat="61.5185" lon="5.72204">
        <ele>62.313756</ele>
        <time>2020-07-28T07:55:09.182Z</time>
      </trkpt>
      <trkpt lat="61.51989" lon="5.72564">
        <ele>61.445906</ele>
        <time>2020-07-28T07:56:06.209Z</time>
      </trkpt>
      <trkpt lat="61.52046" lon="5.73045">
        <ele>63.241613</ele>
        <time>2020-07-28T07:57:01.182Z</time>
      </trkpt>
      <trkpt lat="61.52162" lon="5.73438">
        <ele>65.66329</ele>
        <time>2020-07-28T07:58:05.179Z</time>
      </trkpt>
      <trkpt lat="61.52326" lon="5.73746">
        <ele>72.770368</ele>
        <time>2020-07-28T07:59:29.184Z</time>
      </trkpt>
      <trkpt lat="61.52497" lon="5.74015">
        <ele>74.228949</ele>
        <time>2020-07-28T08:00:21.180Z</time>
      </trkpt>
      <trkpt lat="61.52651" lon="5.74341">
        <ele>73.810371</ele>
        <time>2020-07-28T08:01:31.183Z</time>
      </trkpt>
      <trkpt lat="61.52836" lon="5.7455">
        <ele>76.099334</ele>
        <time>2020-07-28T08:02:45.224Z</time>
      </trkpt>
      <trkpt lat="61.53025" lon="5.74812">
        <ele>82.99743</ele>
        <time>2020-07-28T08:04:10.201Z</time>
      </trkpt>
      <trkpt lat="61.53224" lon="5.74991">
        <ele>80.971138</ele>
        <time>2020-07-28T08:05:19.198Z</time>
      </trkpt>
      <trkpt lat="61.53376" lon="5.75313">
        <ele>80.857644</ele>
        <time>2020-07-28T08:06:14.201Z</time>
      </trkpt>
      <trkpt lat="61.53532" lon="5.75594">
        <ele>82.459021</ele>
        <time>2020-07-28T08:07:27.177Z</time>
      </trkpt>
      <trkpt lat="61.53782" lon="5.75721">
        <ele>81.257305</ele>
        <time>2020-07-28T08:08:28.206Z</time>
      </trkpt>
      <trkpt lat="61.53883" lon="5.76046">
        <ele>79.847358</ele>
        <time>2020-07-28T08:09:09.196Z</time>
      </trkpt>
      <trkpt lat="61.53858" lon="5.7652">
        <ele>79.257297</ele>
        <time>2020-07-28T08:10:02.201Z</time>
      </trkpt>
      <trkpt lat="61.53826" lon="5.77019">
        <ele>79.721012</ele>
        <time>2020-07-28T08:11:01.191Z</time>
      </trkpt>
      <trkpt lat="61.53914" lon="5.77499">
        <ele>79.927608</ele>
        <time>2020-07-28T08:11:59.188Z</time>
      </trkpt>
      <trkpt lat="61.54018" lon="5.77961">
        <ele>80.768733</ele>
        <time>2020-07-28T08:13:02.186Z</time>
      </trkpt>
      <trkpt lat="61.54117" lon="5.78394">
        <ele>82.524921</ele>
        <time>2020-07-28T08:14:02.181Z</time>
      </trkpt>
      <trkpt lat="61.54294" lon="5.78607">
        <ele>89.746131</ele>
        <time>2020-07-28T08:15:07.194Z</time>
      </trkpt>
      <trkpt lat="61.54476" lon="5.78435">
        <ele>100.483551</ele>
        <time>2020-07-28T08:23:07.191Z</time>
      </trkpt>
      <trkpt lat="61.54637" lon="5.78173">
        <ele>114.116635</ele>
        <time>2020-07-28T08:25:03.231Z</time>
      </trkpt>
      <trkpt lat="61.54793" lon="5.77932">
        <ele>125.617647</ele>
        <time>2020-07-28T08:26:59.197Z</time>
      </trkpt>
      <trkpt lat="61.54982" lon="5.77895">
        <ele>145.861252</ele>
        <time>2020-07-28T08:29:23.209Z</time>
      </trkpt>
      <trkpt lat="61.55169" lon="5.77976">
        <ele>164.987789</ele>
        <time>2020-07-28T08:31:45.193Z</time>
      </trkpt>
      <trkpt lat="61.55369" lon="5.78048">
        <ele>178.823652</ele>
        <time>2020-07-28T08:34:11.201Z</time>
      </trkpt>
      <trkpt lat="61.55557" lon="5.77991">
        <ele>189.895814</ele>
        <time>2020-07-28T08:36:40.216Z</time>
      </trkpt>
      <trkpt lat="61.55733" lon="5.77821">
        <ele>205.377838</ele>
        <time>2020-07-28T08:39:06.195Z</time>
      </trkpt>
      <trkpt lat="61.55886" lon="5.776">
        <ele>224.237808</ele>
        <time>2020-07-28T08:41:38.235Z</time>
      </trkpt>
      <trkpt lat="61.56088" lon="5.77657">
        <ele>244.42318</ele>
        <time>2020-07-28T08:44:28.194Z</time>
      </trkpt>
      <trkpt lat="61.5628" lon="5.77613">
        <ele>256.268921</ele>
        <time>2020-07-28T08:46:31.188Z</time>
      </trkpt>
      <trkpt lat="61.56485" lon="5.77427">
        <ele>259.022548</ele>
        <time>2020-07-28T08:47:34.238Z</time>
      </trkpt>
      <trkpt lat="61.56671" lon="5.77214">
        <ele>261.971068</ele>
        <time>2020-07-28T08:48:59.192Z</time>
      </trkpt>
      <trkpt lat="61.56774" lon="5.76814">
        <ele>264.146957</ele>
        <time>2020-07-28T08:50:17.192Z</time>
      </trkpt>
      <trkpt lat="61.56837" lon="5.76435">
        <ele>276.103548</ele>
        <time>2020-07-28T08:52:37.231Z</time>
      </trkpt>
      <trkpt lat="61.56966" lon="5.76149">
        <ele>292.433247</ele>
        <time>2020-07-28T08:55:10.207Z</time>
      </trkpt>
      <trkpt lat="61.57147" lon="5.76141">
        <ele>310.932391</ele>
        <time>2020-07-28T08:57:25.222Z</time>
      </trkpt>
      <trkpt lat="61.57321" lon="5.76015">
        <ele>317.365451</ele>
        <time>2020-07-28T08:59:24.195Z</time>
      </trkpt>
      <trkpt lat="61.57481" lon="5.75757">
        <ele>332.908853</ele>
        <time>2020-07-28T09:02:08.196Z</time>
      </trkpt>
      <trkpt lat="61.57615" lon="5.75488">
        <ele>348.051069</ele>
        <time>2020-07-28T09:04:43.208Z</time>
      </trkpt>
      <trkpt lat="61.5779" lon="5.75568">
        <ele>357.466383</ele>
        <time>2020-07-28T09:07:16.224Z</time>
      </trkpt>
      <trkpt lat="61.5784" lon="5.75563">
        <ele>373.073571</ele>
        <time>2020-07-28T09:09:50.211Z</time>
      </trkpt>
      <trkpt lat="61.5785" lon="5.75157">
        <ele>392.442702</ele>
        <time>2020-07-28T09:12:49.215Z</time>
      </trkpt>
      <trkpt lat="61.57769" lon="5.74792">
        <ele>406.342086</ele>
        <time>2020-07-28T09:15:37.244Z</time>
      </trkpt>
      <trkpt lat="61.57713" lon="5.74421">
        <ele>420.380734</ele>
        <time>2020-07-28T09:18:24.185Z</time>
      </trkpt>
      <trkpt lat="61.57632" lon="5.74065">
        <ele>437.395951</ele>
        <time>2020-07-28T09:21:12.185Z</time>
      </trkpt>
      <trkpt lat="61.57663" lon="5.73651">
        <ele>450.750427</ele>
        <time>2020-07-28T09:29:08.184Z</time>
      </trkpt>
      <trkpt lat="61.5764" lon="5.7326">
        <ele>464.795636</ele>
        <time>2020-07-28T09:31:52.223Z</time>
      </trkpt>
      <trkpt lat="61.57648" lon="5.72861">
        <ele>480.348547</ele>
        <time>2020-07-28T09:34:36.244Z</time>
      </trkpt>
      <trkpt lat="61.57552" lon="5.72557">
        <ele>499.177282</ele>
        <time>2020-07-28T09:37:22.195Z</time>
      </trkpt>
      <trkpt lat="61.57266" lon="5.7206">
        <ele>528.573942</ele>
        <time>2020-07-28T09:46:25.219Z</time>
      </trkpt>
      <trkpt lat="61.57133" lon="5.71697">
        <ele>524.971237</ele>
        <time>2020-07-28T09:48:29.214Z</time>
      </trkpt>
      <trkpt lat="61.57044" lon="5.71213">
        <ele>510.885729</ele>
        <time>2020-07-28T09:48:58.193Z</time>
      </trkpt>
      <trkpt lat="61.5701" lon="5.7082">
        <ele>492.83833</ele>
        <time>2020-07-28T09:49:18.191Z</time>
      </trkpt>
      <trkpt lat="61.57101" lon="5.70424">
        <ele>473.267246</ele>
        <time>2020-07-28T09:49:41.217Z</time>
      </trkpt>
      <trkpt lat="61.57314" lon="5.70201">
        <ele>452.567144</ele>
        <time>2020-07-28T09:50:14.209Z</time>
      </trkpt>
      <trkpt lat="61.57435" lon="5.69832">
        <ele>434.584304</ele>
        <time>2020-07-28T09:50:39.223Z</time>
      </trkpt>
      <trkpt lat="61.57403" lon="5.69333">
        <ele>405.579908</ele>
        <time>2020-07-28T09:51:12.200Z</time>
      </trkpt>
      <trkpt lat="61.57257" lon="5.69563">
        <ele>383.252393</ele>
        <time>2020-07-28T09:51:52.201Z</time>
      </trkpt>
      <trkpt lat="61.57055" lon="5.6966">
        <ele>356.958359</ele>
        <time>2020-07-28T09:52:34.243Z</time>
      </trkpt>
      <trkpt lat="61.5689" lon="5.69576">
        <ele>334.823393</ele>
        <time>2020-07-28T09:53:13.202Z</time>
      </trkpt>
      <trkpt lat="61.56892" lon="5.69076">
        <ele>315.447976</ele>
        <time>2020-07-28T09:53:41.200Z</time>
      </trkpt>
      <trkpt lat="61.56952" lon="5.68491">
        <ele>293.356735</ele>
        <time>2020-07-28T09:54:18.190Z</time>
      </trkpt>
      <trkpt lat="61.56885" lon="5.67991">
        <ele>274.227557</ele>
        <time>2020-07-28T09:54:40.191Z</time>
      </trkpt>
      <trkpt lat="61.56744" lon="5.67457">
        <ele>258.749848</ele>
        <time>2020-07-28T09:55:16.203Z</time>
      </trkpt>
      <trkpt lat="61.56653" lon="5.67015">
        <ele>247.42003</ele>
        <time>2020-07-28T09:55:41.209Z</time>
      </trkpt>
      <trkpt lat="61.56664" lon="5.66508">
        <ele>234.751986</ele>
        <time>2020-07-28T09:56:11.201Z</time>
      </trkpt>
      <trkpt lat="61.56713" lon="5.65972">
        <ele>230.37705</ele>
        <time>2020-07-28T09:56:59.215Z</time>
      </trkpt>
      <trkpt lat="61.56759" lon="5.65531">
        <ele>227.806848</ele>
        <time>2020-07-28T09:57:43.199Z</time>
      </trkpt>
      <trkpt lat="61.56855" lon="5.65074">
        <ele>214.21495</ele>
        <time>2020-07-28T09:58:03.207Z</time>
      </trkpt>
      <trkpt lat="61.56831" lon="5.64603">
        <ele>205.166402</ele>
        <time>2020-07-28T09:58:28.216Z</time>
      </trkpt>
      <trkpt lat="61.56746" lon="5.64109">
        <ele>207.318914</ele>
        <time>2020-07-28T09:59:19.208Z</time>
      </trkpt>
      <trkpt lat="61.56734" lon="5.63648">
        <ele>209.545987</ele>
        <time>2020-07-28T10:00:09.204Z</time>
      </trkpt>
      <trkpt lat="61.5683" lon="5.63232">
        <ele>203.905664</ele>
        <time>2020-07-28T10:00:50.212Z</time>
      </trkpt>
      <trkpt lat="61.56806" lon="5.62793">
        <ele>207.596223</ele>
        <time>2020-07-28T10:01:56.196Z</time>
      </trkpt>
      <trkpt lat="61.5689" lon="5.62245">
        <ele>205.877976</ele>
        <time>2020-07-28T10:02:43.223Z</time>
      </trkpt>
      <trkpt lat="61.56818" lon="5.61835">
        <ele>213.124727</ele>
        <time>2020-07-28T10:03:53.208Z</time>
      </trkpt>
      <trkpt lat="61.56812" lon="5.6142">
        <ele>217.201849</ele>
        <time>2020-07-28T10:05:17.204Z</time>
      </trkpt>
      <trkpt lat="61.56912" lon="5.6101">
        <ele>215.517855</ele>
        <time>2020-07-28T10:06:15.242Z</time>
      </trkpt>
      <trkpt lat="61.56909" lon="5.60458">
        <ele>200.809192</ele>
        <time>2020-07-28T10:06:48.194Z</time>
      </trkpt>
      <trkpt lat="61.56919" lon="5.59985">
        <ele>190.244253</ele>
        <time>2020-07-28T10:07:09.200Z</time>
      </trkpt>
      <trkpt lat="61.56849" lon="5.59522">
        <ele>180.567512</ele>
        <time>2020-07-28T10:07:29.220Z</time>
      </trkpt>
      <trkpt lat="61.56865" lon="5.5903">
        <ele>171.489788</ele>
        <time>2020-07-28T10:07:49.205Z</time>
      </trkpt>
      <trkpt lat="61.5685" lon="5.58607">
        <ele>166.079058</ele>
        <time>2020-07-28T10:08:09.195Z</time>
      </trkpt>
      <trkpt lat="61.56867" lon="5.58065">
        <ele>156.412003</ele>
        <time>2020-07-28T10:08:30.202Z</time>
      </trkpt>
      <trkpt lat="61.56917" lon="5.57484">
        <ele>138.403743</ele>
        <time>2020-07-28T10:08:50.201Z</time>
      </trkpt>
      <trkpt lat="61.56961" lon="5.56925">
        <ele>117.348038</ele>
        <time>2020-07-28T10:09:10.221Z</time>
      </trkpt>
      <trkpt lat="61.57011" lon="5.56457">
        <ele>107.409229</ele>
        <time>2020-07-28T10:09:30.230Z</time>
      </trkpt>
      <trkpt lat="61.56948" lon="5.55847">
        <ele>109.345232</ele>
        <time>2020-07-28T10:10:12.205Z</time>
      </trkpt>
      <trkpt lat="61.57025" lon="5.55345">
        <ele>121.913996</ele>
        <time>2020-07-28T10:10:56.219Z</time>
      </trkpt>
      <trkpt lat="61.57111" lon="5.54949">
        <ele>120.837217</ele>
        <time>2020-07-28T10:11:47.194Z</time>
      </trkpt>
      <trkpt lat="61.57281" lon="5.54663">
        <ele>112.898326</ele>
        <time>2020-07-28T10:12:35.190Z</time>
      </trkpt>
      <trkpt lat="61.57428" lon="5.54258">
        <ele>104.311225</ele>
        <time>2020-07-28T10:13:20.253Z</time>
      </trkpt>
      <trkpt lat="61.57477" lon="5.53809">
        <ele>111.535422</ele>
        <time>2020-07-28T10:14:29.237Z</time>
      </trkpt>
      <trkpt lat="61.57543" lon="5.53407">
        <ele>119.544438</ele>
        <time>2020-07-28T10:15:53.207Z</time>
      </trkpt>
      <trkpt lat="61.57564" lon="5.52986">
        <ele>125.423454</ele>
        <time>2020-07-28T10:17:26.198Z</time>
      </trkpt>
      <trkpt lat="61.57585" lon="5.52558">
        <ele>135.746747</ele>
        <time>2020-07-28T10:19:21.203Z</time>
      </trkpt>
      <trkpt lat="61.57545" lon="5.52169">
        <ele>142.644269</ele>
        <time>2020-07-28T10:21:17.195Z</time>
      </trkpt>
      <trkpt lat="61.57482" lon="5.51776">
        <ele>154.577503</ele>
        <time>2020-07-28T10:23:18.203Z</time>
      </trkpt>
      <trkpt lat="61.57469" lon="5.51368">
        <ele>163.698783</ele>
        <time>2020-07-28T10:25:09.202Z</time>
      </trkpt>
      <trkpt lat="61.57588" lon="5.50975">
        <ele>165.374505</ele>
        <time>2020-07-28T10:26:08.212Z</time>
      </trkpt>
      <trkpt lat="61.57727" lon="5.5056">
        <ele>155.687247</ele>
        <time>2020-07-28T10:26:33.209Z</time>
      </trkpt>
      <trkpt lat="61.57832" lon="5.50123">
        <ele>146.62071</ele>
        <time>2020-07-28T10:26:53.222Z</time>
      </trkpt>
      <trkpt lat="61.57941" lon="5.49672">
        <ele>134.041196</ele>
        <time>2020-07-28T10:27:13.240Z</time>
      </trkpt>
      <trkpt lat="61.58109" lon="5.49333">
        <ele>127.774872</ele>
        <time>2020-07-28T10:27:39.219Z</time>
      </trkpt>
      <trkpt lat="61.5827" lon="5.49007">
        <ele>133.940413</ele>
        <time>2020-07-28T10:28:34.222Z</time>
      </trkpt>
      <trkpt lat="61.58421" lon="5.48672">
        <ele>137.282894</ele>
        <time>2020-07-28T10:29:34.202Z</time>
      </trkpt>
      <trkpt lat="61.58502" lon="5.48298">
        <ele>133.641907</ele>
        <time>2020-07-28T10:30:25.212Z</time>
      </trkpt>
      <trkpt lat="61.58692" lon="5.47971">
        <ele>121.904085</ele>
        <time>2020-07-28T10:30:56.219Z</time>
      </trkpt>
      <trkpt lat="61.58761" lon="5.47552">
        <ele>99.422645</ele>
        <time>2020-07-28T10:31:18.211Z</time>
      </trkpt>
      <trkpt lat="61.58765" lon="5.47126">
        <ele>74.48131</ele>
        <time>2020-07-28T10:31:40.219Z</time>
      </trkpt>
      <trkpt lat="61.58796" lon="5.46566">
        <ele>53.528661</ele>
        <time>2020-07-28T10:32:13.243Z</time>
      </trkpt>
      <trkpt lat="61.58856" lon="5.46162">
        <ele>43.878524</ele>
        <time>2020-07-28T10:33:02.253Z</time>
      </trkpt>
      <trkpt lat="61.59017" lon="5.46015">
        <ele>54.262092</ele>
        <time>2020-07-28T11:18:21.229Z</time>
      </trkpt>
      <trkpt lat="61.59097" lon="5.45628">
        <ele>65.349023</ele>
        <time>2020-07-28T11:19:59.227Z</time>
      </trkpt>
      <trkpt lat="61.5918" lon="5.45231">
        <ele>76.626396</ele>
        <time>2020-07-28T11:21:42.207Z</time>
      </trkpt>
      <trkpt lat="61.5927" lon="5.44839">
        <ele>77.774962</ele>
        <time>2020-07-28T11:23:17.225Z</time>
      </trkpt>
      <trkpt lat="61.59367" lon="5.44351">
        <ele>76.761965</ele>
        <time>2020-07-28T11:24:12.222Z</time>
      </trkpt>
      <trkpt lat="61.59488" lon="5.43981">
        <ele>82.583819</ele>
        <time>2020-07-28T11:25:45.211Z</time>
      </trkpt>
      <trkpt lat="61.59602" lon="5.4365">
        <ele>82.828182</ele>
        <time>2020-07-28T11:28:56.206Z</time>
      </trkpt>
      <trkpt lat="61.59704" lon="5.43189">
        <ele>72.903427</ele>
        <time>2020-07-28T11:29:21.218Z</time>
      </trkpt>
      <trkpt lat="61.5982" lon="5.42745">
        <ele>69.909222</ele>
        <time>2020-07-28T11:29:59.242Z</time>
      </trkpt>
      <trkpt lat="61.59883" lon="5.4232">
        <ele>80.880737</ele>
        <time>2020-07-28T11:31:21.218Z</time>
      </trkpt>
      <trkpt lat="61.59963" lon="5.41919">
        <ele>81.118297</ele>
        <time>2020-07-28T11:32:27.212Z</time>
      </trkpt>
      <trkpt lat="61.60117" lon="5.41625">
        <ele>77.854994</ele>
        <time>2020-07-28T11:33:07.242Z</time>
      </trkpt>
      <trkpt lat="61.60239" lon="5.41251">
        <ele>75.986546</ele>
        <time>2020-07-28T11:33:54.221Z</time>
      </trkpt>
      <trkpt lat="61.6038" lon="5.40751">
        <ele>73.175267</ele>
        <time>2020-07-28T11:34:37.212Z</time>
      </trkpt>
      <trkpt lat="61.60463" lon="5.40347">
        <ele>83.598092</ele>
        <time>2020-07-28T11:35:47.256Z</time>
      </trkpt>
      <trkpt lat="61.60531" lon="5.39919">
        <ele>77.575471</ele>
        <time>2020-07-28T11:36:41.215Z</time>
      </trkpt>
      <trkpt lat="61.60674" lon="5.39438">
        <ele>69.34863</ele>
        <time>2020-07-28T11:37:14.218Z</time>
      </trkpt>
      <trkpt lat="61.60768" lon="5.39014">
        <ele>81.672823</ele>
        <time>2020-07-28T11:38:23.203Z</time>
      </trkpt>
      <trkpt lat="61.60865" lon="5.3864">
        <ele>91.848062</ele>
        <time>2020-07-28T11:39:43.205Z</time>
      </trkpt>
      <trkpt lat="61.60866" lon="5.38141">
        <ele>83.097831</ele>
        <time>2020-07-28T11:40:16.236Z</time>
      </trkpt>
      <trkpt lat="61.60871" lon="5.37685">
        <ele>80.27477</ele>
        <time>2020-07-28T11:41:06.208Z</time>
      </trkpt>
      <trkpt lat="61.60949" lon="5.37216">
        <ele>76.162468</ele>
        <time>2020-07-28T11:41:41.215Z</time>
      </trkpt>
      <trkpt lat="61.60995" lon="5.36753">
        <ele>69.758269</ele>
        <time>2020-07-28T11:42:06.216Z</time>
      </trkpt>
      <trkpt lat="61.6104" lon="5.36334">
        <ele>61.965516</ele>
        <time>2020-07-28T11:42:27.216Z</time>
      </trkpt>
      <trkpt lat="61.61056" lon="5.35867">
        <ele>58.664445</ele>
        <time>2020-07-28T11:43:22.209Z</time>
      </trkpt>
      <trkpt lat="61.61136" lon="5.35454">
        <ele>60.676211</ele>
        <time>2020-07-28T11:44:14.219Z</time>
      </trkpt>
      <trkpt lat="61.61224" lon="5.35031">
        <ele>59.037549</ele>
        <time>2020-07-28T11:45:09.217Z</time>
      </trkpt>
      <trkpt lat="61.61278" lon="5.34601">
        <ele>63.41718</ele>
        <time>2020-07-28T11:47:45.263Z</time>
      </trkpt>
      <trkpt lat="61.6135" lon="5.3411">
        <ele>68.18352</ele>
        <time>2020-07-28T11:50:50.226Z</time>
      </trkpt>
      <trkpt lat="61.61332" lon="5.33619">
        <ele>70.330043</ele>
        <time>2020-07-28T11:51:42.222Z</time>
      </trkpt>
      <trkpt lat="61.61359" lon="5.33179">
        <ele>71.848667</ele>
        <time>2020-07-28T11:52:46.221Z</time>
      </trkpt>
      <trkpt lat="61.61341" lon="5.32773">
        <ele>81.36523</ele>
        <time>2020-07-28T11:54:00.235Z</time>
      </trkpt>
      <trkpt lat="61.61384" lon="5.32383">
        <ele>96.472286</ele>
        <time>2020-07-28T11:56:10.238Z</time>
      </trkpt>
      <trkpt lat="61.61392" lon="5.31984">
        <ele>101.485206</ele>
        <time>2020-07-28T11:57:29.218Z</time>
      </trkpt>
      <trkpt lat="61.61391" lon="5.31558">
        <ele>103.835793</ele>
        <time>2020-07-28T11:58:53.226Z</time>
      </trkpt>
      <trkpt lat="61.61557" lon="5.31356">
        <ele>124.396023</ele>
        <time>2020-07-28T12:01:14.212Z</time>
      </trkpt>
      <trkpt lat="61.6173" lon="5.31189">
        <ele>146.040061</ele>
        <time>2020-07-28T12:03:29.265Z</time>
      </trkpt>
      <trkpt lat="61.61893" lon="5.31458">
        <ele>145.653691</ele>
        <time>2020-07-28T12:04:19.225Z</time>
      </trkpt>
      <trkpt lat="61.62117" lon="5.31384">
        <ele>121.849273</ele>
        <time>2020-07-28T12:04:40.217Z</time>
      </trkpt>
      <trkpt lat="61.62314" lon="5.31137">
        <ele>118.028505</ele>
        <time>2020-07-28T12:05:23.218Z</time>
      </trkpt>
      <trkpt lat="61.62452" lon="5.30881">
        <ele>134.501841</ele>
        <time>2020-07-28T12:07:49.249Z</time>
      </trkpt>
      <trkpt lat="61.62591" lon="5.3112">
        <ele>146.627289</ele>
        <time>2020-07-28T12:10:05.213Z</time>
      </trkpt>
      <trkpt lat="61.62642" lon="5.31557">
        <ele>150.012849</ele>
        <time>2020-07-28T12:11:32.217Z</time>
      </trkpt>
      <trkpt lat="61.62783" lon="5.31929">
        <ele>140.453257</ele>
        <time>2020-07-28T12:12:21.253Z</time>
      </trkpt>
      <trkpt lat="61.62968" lon="5.3219">
        <ele>125.619416</ele>
        <time>2020-07-28T12:12:41.197Z</time>
      </trkpt>
      <trkpt lat="61.62944" lon="5.32729">
        <ele>109.345541</ele>
        <time>2020-07-28T12:13:01.206Z</time>
      </trkpt>
      <trkpt lat="61.62999" lon="5.33186">
        <ele>92.932442</ele>
        <time>2020-07-28T12:13:22.224Z</time>
      </trkpt>
      <trkpt lat="61.63183" lon="5.33397">
        <ele>79.585153</ele>
        <time>2020-07-28T12:13:42.213Z</time>
      </trkpt>
      <trkpt lat="61.63377" lon="5.33503">
        <ele>65.380653</ele>
        <time>2020-07-28T12:14:02.230Z</time>
      </trkpt>
      <trkpt lat="61.63581" lon="5.3329">
        <ele>60.954917</ele>
        <time>2020-07-28T12:14:36.220Z</time>
      </trkpt>
      <trkpt lat="61.63735" lon="5.33055">
        <ele>79.669666</ele>
        <time>2020-07-28T12:16:42.205Z</time>
      </trkpt>
      <trkpt lat="61.63798" lon="5.32659">
        <ele>97.557812</ele>
        <time>2020-07-28T12:19:13.252Z</time>
      </trkpt>
      <trkpt lat="61.63942" lon="5.32474">
        <ele>108.104603</ele>
        <time>2020-07-28T12:21:29.209Z</time>
      </trkpt>
      <trkpt lat="61.64029" lon="5.32827">
        <ele>123.409657</ele>
        <time>2020-07-28T12:23:46.233Z</time>
      </trkpt>
      <trkpt lat="61.64194" lon="5.33025">
        <ele>136.931604</ele>
        <time>2020-07-28T12:25:34.205Z</time>
      </trkpt>
      <trkpt lat="61.64365" lon="5.32671">
        <ele>127.383382</ele>
        <time>2020-07-28T12:26:22.218Z</time>
      </trkpt>
      <trkpt lat="61.64332" lon="5.32186">
        <ele>129.498067</ele>
        <time>2020-07-28T12:27:17.224Z</time>
      </trkpt>
      <trkpt lat="61.64286" lon="5.31779">
        <ele>141.393796</ele>
        <time>2020-07-28T12:28:45.246Z</time>
      </trkpt>
      <trkpt lat="61.64296" lon="5.31362">
        <ele>141.357972</ele>
        <time>2020-07-28T12:29:53.231Z</time>
      </trkpt>
      <trkpt lat="61.64324" lon="5.30873">
        <ele>141.181052</ele>
        <time>2020-07-28T12:30:56.230Z</time>
      </trkpt>
      <trkpt lat="61.64155" lon="5.30634">
        <ele>143.82726</ele>
        <time>2020-07-28T12:31:51.219Z</time>
      </trkpt>
      <trkpt lat="61.63989" lon="5.30365">
        <ele>138.348768</ele>
        <time>2020-07-28T12:32:42.236Z</time>
      </trkpt>
      <trkpt lat="61.63985" lon="5.29871">
        <ele>127.516502</ele>
        <time>2020-07-28T12:33:10.252Z</time>
      </trkpt>
      <trkpt lat="61.641" lon="5.29406">
        <ele>125.541696</ele>
        <time>2020-07-28T12:33:42.221Z</time>
      </trkpt>
      <trkpt lat="61.64104" lon="5.2899">
        <ele>128.278014</ele>
        <time>2020-07-28T12:35:25.236Z</time>
      </trkpt>
      <trkpt lat="61.64045" lon="5.28595">
        <ele>133.362496</ele>
        <time>2020-07-28T12:44:34.226Z</time>
      </trkpt>
      <trkpt lat="61.63969" lon="5.28192">
        <ele>129.904377</ele>
        <time>2020-07-28T12:45:14.292Z</time>
      </trkpt>
      <trkpt lat="61.63862" lon="5.27152">
        <ele>128.1589</ele>
        <time>2020-07-28T12:46:57.211Z</time>
      </trkpt>
      <trkpt lat="61.63848" lon="5.26688">
        <ele>118.075753</ele>
        <time>2020-07-28T12:47:54.219Z</time>
      </trkpt>
      <trkpt lat="61.63831" lon="5.26082">
        <ele>110.6838</ele>
        <time>2020-07-28T12:48:34.230Z</time>
      </trkpt>
      <trkpt lat="61.63806" lon="5.25521">
        <ele>104.791795</ele>
        <time>2020-07-28T12:49:13.226Z</time>
      </trkpt>
      <trkpt lat="61.63765" lon="5.25092">
        <ele>97.595526</ele>
        <time>2020-07-28T12:49:33.230Z</time>
      </trkpt>
      <trkpt lat="61.63696" lon="5.24626">
        <ele>88.647245</ele>
        <time>2020-07-28T12:49:54.228Z</time>
      </trkpt>
      <trkpt lat="61.63624" lon="5.24116">
        <ele>80.019155</ele>
        <time>2020-07-28T12:50:14.218Z</time>
      </trkpt>
      <trkpt lat="61.63589" lon="5.23618">
        <ele>74.495467</ele>
        <time>2020-07-28T12:50:41.235Z</time>
      </trkpt>
      <trkpt lat="61.63592" lon="5.23187">
        <ele>81.32475</ele>
        <time>2020-07-28T12:51:55.218Z</time>
      </trkpt>
      <trkpt lat="61.63553" lon="5.2275">
        <ele>91.74385</ele>
        <time>2020-07-28T12:53:39.210Z</time>
      </trkpt>
      <trkpt lat="61.63557" lon="5.22162">
        <ele>116.810421</ele>
        <time>2020-07-28T12:56:58.246Z</time>
      </trkpt>
      <trkpt lat="61.63524" lon="5.21779">
        <ele>133.802673</ele>
        <time>2020-07-28T12:59:01.223Z</time>
      </trkpt>
      <trkpt lat="61.63554" lon="5.21433">
        <ele>141.610109</ele>
        <time>2020-07-28T13:01:16.223Z</time>
      </trkpt>
      <trkpt lat="61.63686" lon="5.21701">
        <ele>157.061154</ele>
        <time>2020-07-28T13:03:51.238Z</time>
      </trkpt>
      <trkpt lat="61.63754" lon="5.21359">
        <ele>185.391128</ele>
        <time>2020-07-28T13:06:34.245Z</time>
      </trkpt>
      <trkpt lat="61.63756" lon="5.20976">
        <ele>193.109924</ele>
        <time>2020-07-28T13:09:01.217Z</time>
      </trkpt>
      <trkpt lat="61.6377" lon="5.20579">
        <ele>209.992463</ele>
        <time>2020-07-28T13:11:37.226Z</time>
      </trkpt>
      <trkpt lat="61.63812" lon="5.20165">
        <ele>219.619949</ele>
        <time>2020-07-28T13:14:12.227Z</time>
      </trkpt>
      <trkpt lat="61.63975" lon="5.1994">
        <ele>230.441111</ele>
        <time>2020-07-28T13:26:53.221Z</time>
      </trkpt>
      <trkpt lat="61.64154" lon="5.19844">
        <ele>246.001051</ele>
        <time>2020-07-28T13:28:57.244Z</time>
      </trkpt>
      <trkpt lat="61.64342" lon="5.19785">
        <ele>260.583137</ele>
        <time>2020-07-28T13:31:10.221Z</time>
      </trkpt>
      <trkpt lat="61.64534" lon="5.19668">
        <ele>274.029538</ele>
        <time>2020-07-28T13:33:33.229Z</time>
      </trkpt>
      <trkpt lat="61.64722" lon="5.19589">
        <ele>296.551392</ele>
        <time>2020-07-28T13:35:51.249Z</time>
      </trkpt>
      <trkpt lat="61.64901" lon="5.19467">
        <ele>316.813857</ele>
        <time>2020-07-28T13:38:08.220Z</time>
      </trkpt>
      <trkpt lat="61.65076" lon="5.19322">
        <ele>340.714086</ele>
        <time>2020-07-28T13:40:29.229Z</time>
      </trkpt>
      <trkpt lat="61.65264" lon="5.19313">
        <ele>352.663493</ele>
        <time>2020-07-28T13:42:59.239Z</time>
      </trkpt>
      <trkpt lat="61.65465" lon="5.19293">
        <ele>367.97013</ele>
        <time>2020-07-28T13:45:40.222Z</time>
      </trkpt>
      <trkpt lat="61.65654" lon="5.19291">
        <ele>373.874404</ele>
        <time>2020-07-28T13:48:14.228Z</time>
      </trkpt>
      <trkpt lat="61.66462" lon="5.19543">
        <ele>441.279724</ele>
        <time>2020-07-28T14:05:16.259Z</time>
      </trkpt>
      <trkpt lat="61.69296" lon="5.19706">
        <ele>370.233668</ele>
        <time>2020-07-28T14:21:38.222Z</time>
      </trkpt>
      <trkpt lat="61.69532" lon="5.19936">
        <ele>304.381978</ele>
        <time>2020-07-28T14:26:46.231Z</time>
      </trkpt>
      <trkpt lat="61.69756" lon="5.19876">
        <ele>287.098418</ele>
        <time>2020-07-28T14:27:06.236Z</time>
      </trkpt>
      <trkpt lat="61.70004" lon="5.19666">
        <ele>261.646166</ele>
        <time>2020-07-28T14:27:26.236Z</time>
      </trkpt>
      <trkpt lat="61.70224" lon="5.19468">
        <ele>237.146818</ele>
        <time>2020-07-28T14:27:46.271Z</time>
      </trkpt>
      <trkpt lat="61.70423" lon="5.19206">
        <ele>216.828336</ele>
        <time>2020-07-28T14:28:07.227Z</time>
      </trkpt>
      <trkpt lat="61.70665" lon="5.1916">
        <ele>201.307912</ele>
        <time>2020-07-28T14:28:27.251Z</time>
      </trkpt>
      <trkpt lat="61.709" lon="5.19296">
        <ele>183.856949</ele>
        <time>2020-07-28T14:28:47.238Z</time>
      </trkpt>
      <trkpt lat="61.71144" lon="5.19262">
        <ele>164.262836</ele>
        <time>2020-07-28T14:29:07.224Z</time>
      </trkpt>
      <trkpt lat="61.71433" lon="5.19143">
        <ele>140.399596</ele>
        <time>2020-07-28T14:29:28.236Z</time>
      </trkpt>
      <trkpt lat="61.71682" lon="5.1904">
        <ele>127.590431</ele>
        <time>2020-07-28T14:29:48.258Z</time>
      </trkpt>
      <trkpt lat="61.71904" lon="5.18967">
        <ele>115.73092</ele>
        <time>2020-07-28T14:30:08.237Z</time>
      </trkpt>
      <trkpt lat="61.71922" lon="5.19386">
        <ele>98.048472</ele>
        <time>2020-07-28T14:30:28.250Z</time>
      </trkpt>
      <trkpt lat="61.72" lon="5.19847">
        <ele>78.984131</ele>
        <time>2020-07-28T14:30:49.241Z</time>
      </trkpt>
      <trkpt lat="61.72107" lon="5.20308">
        <ele>57.923058</ele>
        <time>2020-07-28T14:31:09.253Z</time>
      </trkpt>
      <trkpt lat="61.72313" lon="5.20547">
        <ele>49.278756</ele>
        <time>2020-07-28T14:31:44.221Z</time>
      </trkpt>
      <trkpt lat="61.72217" lon="5.2098">
        <ele>45.865483</ele>
        <time>2020-07-28T14:32:30.240Z</time>
      </trkpt>
      <trkpt lat="61.72108" lon="5.21368">
        <ele>38.551277</ele>
        <time>2020-07-28T14:32:56.237Z</time>
      </trkpt>
      <trkpt lat="61.72249" lon="5.21761">
        <ele>53.753759</ele>
        <time>2020-07-28T14:34:09.232Z</time>
      </trkpt>
      <trkpt lat="61.72462" lon="5.21926">
        <ele>55.471393</ele>
        <time>2020-07-28T14:34:53.238Z</time>
      </trkpt>
      <trkpt lat="61.72562" lon="5.22335">
        <ele>48.511292</ele>
        <time>2020-07-28T14:35:33.235Z</time>
      </trkpt>
      <trkpt lat="61.72759" lon="5.22298">
        <ele>50.483105</ele>
        <time>2020-07-28T14:36:14.230Z</time>
      </trkpt>
      <trkpt lat="61.72925" lon="5.21944">
        <ele>53.890708</ele>
        <time>2020-07-28T14:37:11.245Z</time>
      </trkpt>
      <trkpt lat="61.73012" lon="5.21508">
        <ele>54.0038</ele>
        <time>2020-07-28T14:38:02.229Z</time>
      </trkpt>
      <trkpt lat="61.73146" lon="5.21122">
        <ele>51.565276</ele>
        <time>2020-07-28T14:38:51.274Z</time>
      </trkpt>
      <trkpt lat="61.73243" lon="5.20761">
        <ele>59.720632</ele>
        <time>2020-07-28T14:40:46.260Z</time>
      </trkpt>
      <trkpt lat="61.73377" lon="5.20427">
        <ele>65.967321</ele>
        <time>2020-07-28T14:42:44.259Z</time>
      </trkpt>
      <trkpt lat="61.73556" lon="5.20178">
        <ele>70.945205</ele>
        <time>2020-07-28T14:43:50.231Z</time>
      </trkpt>
      <trkpt lat="61.73675" lon="5.19809">
        <ele>68.091556</ele>
        <time>2020-07-28T14:44:41.249Z</time>
      </trkpt>
      <trkpt lat="61.73723" lon="5.19396">
        <ele>63.810259</ele>
        <time>2020-07-28T14:45:27.256Z</time>
      </trkpt>
      <trkpt lat="61.73722" lon="5.18916">
        <ele>66.159418</ele>
        <time>2020-07-28T14:46:23.267Z</time>
      </trkpt>
      <trkpt lat="61.73793" lon="5.18483">
        <ele>62.680763</ele>
        <time>2020-07-28T14:47:10.263Z</time>
      </trkpt>
      <trkpt lat="61.73781" lon="5.18048">
        <ele>56.970902</ele>
        <time>2020-07-28T14:47:41.233Z</time>
      </trkpt>
      <trkpt lat="61.73882" lon="5.1764">
        <ele>58.703926</ele>
        <time>2020-07-28T14:48:38.227Z</time>
      </trkpt>
      <trkpt lat="61.73908" lon="5.17171">
        <ele>63.632539</ele>
        <time>2020-07-28T14:49:53.248Z</time>
      </trkpt>
      <trkpt lat="61.73905" lon="5.16697">
        <ele>61.644479</ele>
        <time>2020-07-28T14:50:56.249Z</time>
      </trkpt>
      <trkpt lat="61.74012" lon="5.16231">
        <ele>53.658074</ele>
        <time>2020-07-28T14:51:26.244Z</time>
      </trkpt>
      <trkpt lat="61.74108" lon="5.15829">
        <ele>63.961955</ele>
        <time>2020-07-28T14:52:58.252Z</time>
      </trkpt>
      <trkpt lat="61.74289" lon="5.15688">
        <ele>73.783667</ele>
        <time>2020-07-28T14:54:26.233Z</time>
      </trkpt>
      <trkpt lat="61.74513" lon="5.15644">
        <ele>71.087981</ele>
        <time>2020-07-28T14:55:20.249Z</time>
      </trkpt>
      <trkpt lat="61.74636" lon="5.15225">
        <ele>60.722824</ele>
        <time>2020-07-28T14:55:51.295Z</time>
      </trkpt>
      <trkpt lat="61.74803" lon="5.15024">
        <ele>66.394507</ele>
        <time>2020-07-28T14:56:46.273Z</time>
      </trkpt>
      <trkpt lat="61.75009" lon="5.15084">
        <ele>88.697964</ele>
        <time>2020-07-28T14:57:57.229Z</time>
      </trkpt>
      <trkpt lat="61.75229" lon="5.15094">
        <ele>86.237224</ele>
        <time>2020-07-28T14:59:17.232Z</time>
      </trkpt>
      <trkpt lat="61.75429" lon="5.15434">
        <ele>80.766186</ele>
        <time>2020-07-28T14:59:59.255Z</time>
      </trkpt>
      <trkpt lat="61.7557" lon="5.15913">
        <ele>77.804309</ele>
        <time>2020-07-28T15:00:39.228Z</time>
      </trkpt>
      <trkpt lat="61.7575" lon="5.16246">
        <ele>73.326156</ele>
        <time>2020-07-28T15:01:08.252Z</time>
      </trkpt>
      <trkpt lat="61.75899" lon="5.16629">
        <ele>72.417371</ele>
        <time>2020-07-28T15:02:18.233Z</time>
      </trkpt>
      <trkpt lat="61.7585" lon="5.16949">
        <ele>74.345706</ele>
        <time>2020-07-28T15:03:44.232Z</time>
      </trkpt>
      <trkpt lat="61.75798" lon="5.17415">
        <ele>64.502308</ele>
        <time>2020-07-28T15:04:16.262Z</time>
      </trkpt>
      <trkpt lat="61.75872" lon="5.17813">
        <ele>68.479993</ele>
        <time>2020-07-28T15:05:38.237Z</time>
      </trkpt>
      <trkpt lat="61.75951" lon="5.18272">
        <ele>66.868423</ele>
        <time>2020-07-28T15:06:31.241Z</time>
      </trkpt>
      <trkpt lat="61.75933" lon="5.18612">
        <ele>67.176527</ele>
        <time>2020-07-28T15:07:16.239Z</time>
      </trkpt>
      <trkpt lat="61.75932" lon="5.19096">
        <ele>68.226858</ele>
        <time>2020-07-28T15:08:06.270Z</time>
      </trkpt>
      <trkpt lat="61.75805" lon="5.19556">
        <ele>57.932625</ele>
        <time>2020-07-28T15:08:56.271Z</time>
      </trkpt>
      <trkpt lat="61.75731" lon="5.20034">
        <ele>60.148488</ele>
        <time>2020-07-28T15:09:38.218Z</time>
      </trkpt>
      <trkpt lat="61.75761" lon="5.20452">
        <ele>69.025665</ele>
        <time>2020-07-28T15:10:54.253Z</time>
      </trkpt>
      <trkpt lat="61.75877" lon="5.20792">
        <ele>80.521638</ele>
        <time>2020-07-28T15:12:16.234Z</time>
      </trkpt>
      <trkpt lat="61.7592" lon="5.21226">
        <ele>70.989968</ele>
        <time>2020-07-28T15:13:04.250Z</time>
      </trkpt>
      <trkpt lat="61.7595" lon="5.21659">
        <ele>69.556459</ele>
        <time>2020-07-28T15:13:47.260Z</time>
      </trkpt>
      <trkpt lat="61.76067" lon="5.22028">
        <ele>79.887543</ele>
        <time>2020-07-28T15:15:35.244Z</time>
      </trkpt>
      <trkpt lat="61.76166" lon="5.22449">
        <ele>81.191127</ele>
        <time>2020-07-28T15:16:17.269Z</time>
      </trkpt>
      <trkpt lat="61.76152" lon="5.22998">
        <ele>75.978659</ele>
        <time>2020-07-28T15:17:01.259Z</time>
      </trkpt>
      <trkpt lat="61.76133" lon="5.23431">
        <ele>79.586673</ele>
        <time>2020-07-28T15:18:22.234Z</time>
      </trkpt>
      <trkpt lat="61.76076" lon="5.24034">
        <ele>87.300732</ele>
        <time>2020-07-28T15:19:49.246Z</time>
      </trkpt>
      <trkpt lat="61.76119" lon="5.24437">
        <ele>89.810447</ele>
        <time>2020-07-28T15:21:07.236Z</time>
      </trkpt>
      <trkpt lat="61.76196" lon="5.24846">
        <ele>98.987625</ele>
        <time>2020-07-28T15:22:31.238Z</time>
      </trkpt>
      <trkpt lat="61.76253" lon="5.25237">
        <ele>108.440251</ele>
        <time>2020-07-28T15:24:27.239Z</time>
      </trkpt>
      <trkpt lat="61.76414" lon="5.25444">
        <ele>115.661294</ele>
        <time>2020-07-28T15:26:36.249Z</time>
      </trkpt>
      <trkpt lat="61.76531" lon="5.25681">
        <ele>116.952619</ele>
        <time>2020-07-28T15:28:37.255Z</time>
      </trkpt>
    </trkseg>
  </trk>
</gpx>